Time;durP1;ratioP1;P1;durP2;ratioP2;P2;SDS_P1;SDS_P2;PMS_P1;PMS_P2;Temp;Humidity;BMP_temperature;BMP_pressure;BME280_temperature;BME280_humidity;BME280_pressure;Samples;Min_cycle;Max_cycle;Signal;HPM_P1;HPM_P2
2020/12/08 00:01:35;;;;;;;18.07;8.83;;;-0.70;98.40;;;;;;4413040;32;20155;-77
2020/12/08 00:04:02;;;;;;;18.90;8.73;;;-0.70;98.40;;;;;;4423324;32;20158;-77
2020/12/08 00:06:28;;;;;;;16.97;8.50;;;-0.70;98.10;;;;;;4417912;32;20145;-77
2020/12/08 00:08:55;;;;;;;17.83;8.60;;;-0.70;98.00;;;;;;4415874;32;20152;-77
2020/12/08 00:11:22;;;;;;;17.60;8.43;;;-0.60;97.90;;;;;;4424959;32;20213;-78
2020/12/08 00:13:48;;;;;;;17.73;8.27;;;-0.70;97.90;;;;;;4413542;32;20155;-79
2020/12/08 00:16:15;;;;;;;16.93;9.03;;;-0.60;97.80;;;;;;4420382;32;20491;-77
2020/12/08 00:18:41;;;;;;;20.60;9.60;;;-0.70;98.00;;;;;;4419130;32;20189;-77
2020/12/08 00:21:07;;;;;;;18.53;9.27;;;-0.70;98.30;;;;;;4416281;32;20143;-78
2020/12/08 00:23:34;;;;;;;19.73;9.93;;;-0.70;98.30;;;;;;4423303;32;20211;-78
2020/12/08 00:26:00;;;;;;;17.70;8.93;;;-0.70;98.30;;;;;;4414115;32;20178;-78
2020/12/08 00:28:26;;;;;;;20.40;9.80;;;-0.70;98.30;;;;;;4418916;32;20162;-78
2020/12/08 00:30:53;;;;;;;17.93;9.50;;;-0.70;98.30;;;;;;4420345;32;20173;-78
2020/12/08 00:33:20;;;;;;;18.77;9.30;;;-0.70;98.20;;;;;;4413276;32;20213;-77
2020/12/08 00:35:46;;;;;;;18.83;9.43;;;-0.70;98.30;;;;;;4423056;32;20139;-78
2020/12/08 00:38:13;;;;;;;19.37;8.90;;;-0.80;98.30;;;;;;4415687;32;20210;-78
2020/12/08 00:40:40;;;;;;;17.27;9.20;;;-0.80;98.60;;;;;;4418866;32;20203;-78
2020/12/08 00:43:07;;;;;;;16.00;8.13;;;-0.90;98.60;;;;;;4417686;32;20155;-77
2020/12/08 00:45:34;;;;;;;15.40;7.83;;;-0.80;98.50;;;;;;4425635;32;20154;-78
2020/12/08 00:48:00;;;;;;;16.50;8.50;;;-0.80;98.30;;;;;;4421342;32;20151;-78
2020/12/08 00:50:27;;;;;;;17.03;8.33;;;-0.80;98.50;;;;;;4417385;32;20189;-78
2020/12/08 00:52:54;;;;;;;16.10;8.33;;;-0.80;98.30;;;;;;4417279;32;20178;-78
2020/12/08 00:55:20;;;;;;;15.27;8.07;;;-0.80;98.20;;;;;;4422628;32;20538;-78
2020/12/08 00:57:46;;;;;;;16.30;8.57;;;-0.90;98.50;;;;;;4412283;32;20377;-78
2020/12/08 01:00:13;;;;;;;18.03;8.53;;;-0.80;98.30;;;;;;4420189;32;20571;-78
2020/12/08 01:02:40;;;;;;;16.07;8.17;;;-0.80;97.90;;;;;;4418989;32;20155;-78
2020/12/08 01:05:11;;;;;;;17.43;8.13;;;-0.80;97.90;;;;;;4414404;32;20275;-78
2020/12/08 01:07:38;;;;;;;15.90;8.57;;;-0.90;98.10;;;;;;4422605;32;20150;-78
2020/12/08 01:10:07;;;;;;;16.27;8.47;;;-0.90;98.00;;;;;;4416038;32;20387;-78
2020/12/08 01:12:33;;;;;;;17.13;8.63;;;-1.00;98.00;;;;;;4417598;32;20197;-77
2020/12/08 01:15:00;;;;;;;16.73;8.50;;;-1.00;98.00;;;;;;4421794;32;20147;-79
2020/12/08 01:17:26;;;;;;;16.00;8.40;;;-0.90;98.10;;;;;;4411976;32;20147;-78
2020/12/08 01:19:53;;;;;;;17.63;8.60;;;-1.00;98.20;;;;;;4421185;32;20191;-79
2020/12/08 01:22:19;;;;;;;19.27;8.90;;;-1.00;97.90;;;;;;4415860;32;20188;-77
2020/12/08 01:24:45;;;;;;;17.63;8.53;;;-0.90;98.00;;;;;;4416357;32;20216;-76
2020/12/08 01:27:12;;;;;;;17.70;8.47;;;-1.00;97.60;;;;;;4421516;32;20408;-77
2020/12/08 01:29:38;;;;;;;18.40;8.70;;;-1.00;97.50;;;;;;4413783;32;20178;-77
2020/12/08 01:32:05;;;;;;;20.20;8.93;;;-0.90;97.40;;;;;;4420725;32;20230;-75
2020/12/08 01:34:31;;;;;;;17.07;8.00;;;-1.00;97.10;;;;;;4418636;32;20159;-76
2020/12/08 01:36:58;;;;;;;21.90;8.67;;;-1.10;97.30;;;;;;4416230;32;20174;-77
2020/12/08 01:39:24;;;;;;;16.13;8.60;;;-1.00;97.30;;;;;;4422229;32;20154;-77
2020/12/08 01:41:55;;;;;;;18.50;8.57;;;-1.10;97.30;;;;;;4412515;32;20422;-77
2020/12/08 01:44:22;;;;;;;14.83;7.63;;;-1.00;97.00;;;;;;4420095;32;20410;-77
2020/12/08 01:46:48;;;;;;;15.23;7.70;;;-1.10;96.80;;;;;;4418606;32;20406;-77
2020/12/08 01:49:16;;;;;;;17.03;8.20;;;-1.00;96.70;;;;;;4412735;32;20383;-76
2020/12/08 01:51:43;;;;;;;18.67;8.37;;;-1.00;96.70;;;;;;4421968;32;20237;-75
2020/12/08 01:54:09;;;;;;;15.50;7.67;;;-1.00;96.50;;;;;;4414943;32;20467;-76
2020/12/08 01:56:37;;;;;;;15.87;7.57;;;-1.10;96.50;;;;;;4416839;32;20157;-76
2020/12/08 01:59:05;;;;;;;17.27;8.17;;;-1.00;96.70;;;;;;4420119;32;20185;-76
2020/12/08 02:01:32;;;;;;;13.33;7.53;;;-1.00;96.70;;;;;;4411726;32;20501;-76
2020/12/08 02:03:59;;;;;;;16.90;8.13;;;-1.00;96.50;;;;;;4420520;32;20146;-77
2020/12/08 02:06:26;;;;;;;16.57;8.20;;;-1.00;96.50;;;;;;4415976;32;20152;-77
2020/12/08 02:08:52;;;;;;;15.73;7.73;;;-0.90;96.40;;;;;;4415037;32;20182;-77
2020/12/08 02:11:20;;;;;;;15.30;7.77;;;-1.00;96.20;;;;;;4421532;32;20154;-77
2020/12/08 02:13:46;;;;;;;16.37;7.60;;;-1.00;96.10;;;;;;4411392;32;20170;-78
2020/12/08 02:16:13;;;;;;;16.03;7.97;;;-1.00;96.40;;;;;;4418947;32;20221;-73
2020/12/08 02:18:40;;;;;;;15.47;7.47;;;-1.00;96.50;;;;;;4418751;32;20194;-73
2020/12/08 02:21:06;;;;;;;15.00;7.53;;;-1.00;96.50;;;;;;4414844;32;20211;-73
2020/12/08 02:23:33;;;;;;;15.47;7.90;;;-0.90;96.40;;;;;;4423010;32;20162;-73
2020/12/08 02:26:02;;;;;;;16.33;7.87;;;-0.90;96.40;;;;;;4414484;32;20228;-73
2020/12/08 02:28:29;;;;;;;17.37;7.83;;;-0.90;96.40;;;;;;4416877;32;20463;-73
2020/12/08 02:30:56;;;;;;;15.63;7.40;;;-0.80;96.70;;;;;;4418453;32;20147;-73
2020/12/08 02:33:29;;;;;;;14.30;7.50;;;-0.90;96.40;;;;;;4412762;32;20468;-73
2020/12/08 02:35:56;;;;;;;15.33;7.13;;;-0.90;96.60;;;;;;4420858;32;20156;-73
2020/12/08 02:38:24;;;;;;;16.33;7.20;;;-0.80;96.20;;;;;;4416845;32;20170;-73
2020/12/08 02:40:51;;;;;;;14.17;7.10;;;-0.80;96.40;;;;;;4415163;32;20178;-73
2020/12/08 02:43:18;;;;;;;14.10;7.20;;;-0.90;96.20;;;;;;4422064;32;20185;-73
2020/12/08 02:45:44;;;;;;;13.33;7.10;;;-0.80;96.40;;;;;;4411461;32;20213;-73
2020/12/08 02:48:10;;;;;;;14.47;7.20;;;-0.80;96.20;;;;;;4419052;32;20223;-73
2020/12/08 02:50:55;;;;;;;13.57;7.10;;;-0.80;96.40;;;;;;4420248;32;20352;-73
2020/12/08 02:53:22;;;;;;;17.17;7.70;;;-0.90;96.10;;;;;;4411343;32;20195;-73
2020/12/08 02:55:48;;;;;;;14.63;7.47;;;-0.90;96.40;;;;;;4422740;32;20151;-73
2020/12/08 02:58:15;;;;;;;12.53;7.00;;;-0.90;96.40;;;;;;4414405;32;20203;-73
2020/12/08 03:00:42;;;;;;;14.93;7.70;;;-0.80;96.30;;;;;;4415543;32;20404;-73
2020/12/08 03:03:08;;;;;;;14.93;7.10;;;-0.80;96.40;;;;;;4419987;32;20211;-73
2020/12/08 03:05:34;;;;;;;14.80;7.40;;;-0.80;96.40;;;;;;4418933;32;20482;-73
2020/12/08 03:08:01;;;;;;;16.40;7.73;;;-0.70;96.30;;;;;;4425301;32;20153;-73
2020/12/08 03:10:27;;;;;;;15.50;7.13;;;-0.70;96.40;;;;;;4425435;32;20166;-73
2020/12/08 03:12:54;;;;;;;14.70;6.87;;;-0.70;96.70;;;;;;4423861;32;20178;-73
2020/12/08 03:15:20;;;;;;;13.33;7.13;;;-0.80;96.30;;;;;;4422906;32;20205;-72
2020/12/08 03:17:46;;;;;;;14.80;6.93;;;-0.80;96.50;;;;;;4412763;32;20414;-73
2020/12/08 03:20:13;;;;;;;15.73;6.60;;;-0.80;96.40;;;;;;4423867;32;20220;-73
2020/12/08 03:22:40;;;;;;;13.83;6.80;;;-0.80;96.50;;;;;;4417093;32;20234;-73
2020/12/08 03:25:07;;;;;;;13.07;6.53;;;-0.80;96.60;;;;;;4419150;32;20147;-73
2020/12/08 03:27:33;;;;;;;12.27;6.30;;;-0.80;96.70;;;;;;4411232;32;20174;-74
2020/12/08 03:29:59;;;;;;;13.47;6.27;;;-0.80;96.40;;;;;;4421226;32;20145;-73
2020/12/08 03:32:26;;;;;;;14.87;6.60;;;-0.80;96.50;;;;;;4415171;32;20185;-72
2020/12/08 03:34:52;;;;;;;13.07;6.60;;;-0.80;96.60;;;;;;4414293;32;20190;-72
2020/12/08 03:37:19;;;;;;;13.43;6.27;;;-0.80;96.50;;;;;;4422262;32;20159;-72
2020/12/08 03:39:45;;;;;;;11.27;5.70;;;-0.70;96.60;;;;;;4418990;32;20159;-72
2020/12/08 03:42:12;;;;;;;10.70;5.60;;;-0.80;96.30;;;;;;4423455;32;20278;-72
2020/12/08 03:44:38;;;;;;;10.67;5.70;;;-0.80;96.40;;;;;;4425797;32;20174;-75
2020/12/08 03:47:05;;;;;;;10.50;5.60;;;-0.80;96.00;;;;;;4427058;32;20210;-77
2020/12/08 03:49:31;;;;;;;12.20;5.77;;;-0.90;95.90;;;;;;4426328;32;20154;-77
2020/12/08 03:51:58;;;;;;;10.43;5.83;;;-0.90;96.00;;;;;;4422560;32;20158;-77
2020/12/08 03:54:25;;;;;;;10.10;5.63;;;-0.80;96.10;;;;;;4419380;32;20159;-78
2020/12/08 03:56:52;;;;;;;11.93;5.77;;;-0.80;95.90;;;;;;4416803;32;20213;-78
2020/12/08 03:59:19;;;;;;;10.07;6.03;;;-0.70;95.90;;;;;;4423401;32;20169;-77
2020/12/08 04:01:51;;;;;;;11.67;6.13;;;-0.70;95.70;;;;;;4413554;32;20215;-77
2020/12/08 04:04:19;;;;;;;12.37;6.53;;;-0.80;95.90;;;;;;4420430;32;20152;-76
2020/12/08 04:06:46;;;;;;;11.63;5.63;;;-0.80;95.90;;;;;;4419751;32;20430;-78
2020/12/08 04:09:13;;;;;;;10.27;5.50;;;-0.80;95.80;;;;;;4414594;32;20179;-77
2020/12/08 04:11:40;;;;;;;12.17;6.00;;;-0.70;95.60;;;;;;4423379;32;20225;-77
2020/12/08 04:14:07;;;;;;;10.33;5.77;;;-0.80;95.50;;;;;;4415508;32;20154;-77
2020/12/08 04:16:36;;;;;;;8.97;5.80;;;-0.80;95.30;;;;;;4418513;32;20173;-77
2020/12/08 04:19:03;;;;;;;9.43;5.63;;;-0.70;95.30;;;;;;4421525;32;20221;-77
2020/12/08 04:21:30;;;;;;;11.50;6.00;;;-0.80;95.30;;;;;;4411869;32;20242;-76
2020/12/08 04:24:00;;;;;;;9.93;5.80;;;-0.70;95.30;;;;;;4422173;32;20405;-76
2020/12/08 04:26:31;;;;;;;9.80;5.77;;;-0.80;95.40;;;;;;4417697;32;20151;-76
2020/12/08 04:28:59;;;;;;;9.67;6.00;;;-0.80;95.50;;;;;;4415685;32;20178;-76
2020/12/08 04:31:29;;;;;;;9.47;5.90;;;-0.70;95.40;;;;;;4423945;32;20210;-76
2020/12/08 04:33:56;;;;;;;11.63;6.00;;;-0.70;95.30;;;;;;4415841;32;20440;-77
2020/12/08 04:36:23;;;;;;;10.00;5.93;;;-0.80;95.30;;;;;;4420799;32;20500;-77
2020/12/08 04:38:51;;;;;;;10.20;5.90;;;-0.80;95.30;;;;;;4419905;32;20237;-77
2020/12/08 04:41:22;;;;;;;10.40;5.97;;;-0.80;95.30;;;;;;4413629;32;20158;-77
2020/12/08 04:43:50;;;;;;;9.00;6.00;;;-0.70;95.60;;;;;;4413302;32;20149;-78
2020/12/08 04:46:23;;;;;;;12.47;6.10;;;-0.70;95.50;;;;;;4427060;32;20155;-77
2020/12/08 04:48:50;;;;;;;10.30;5.87;;;-0.60;95.30;;;;;;4416344;32;20215;-77
2020/12/08 04:51:17;;;;;;;7.50;5.27;;;-0.60;95.00;;;;;;4421808;32;20151;-77
2020/12/08 04:53:46;;;;;;;9.10;5.67;;;-0.60;95.10;;;;;;4412372;32;20181;-77
2020/12/08 04:56:13;;;;;;;9.43;5.53;;;-0.60;95.10;;;;;;4420064;32;20190;-77
2020/12/08 04:58:42;;;;;;;10.30;5.70;;;-0.60;95.00;;;;;;4419243;32;20569;-77
2020/12/08 05:01:09;;;;;;;10.10;5.53;;;-0.60;95.10;;;;;;4425402;32;20405;-77
2020/12/08 05:03:40;;;;;;;9.33;6.00;;;-0.70;95.00;;;;;;4426306;32;20175;-76
2020/12/08 05:06:14;;;;;;;9.27;5.80;;;-0.70;95.10;;;;;;4425268;32;20387;-76
2020/12/08 05:08:41;;;;;;;10.00;5.87;;;-0.70;95.20;;;;;;4425408;32;20165;-77
2020/12/08 05:11:08;;;;;;;9.03;5.70;;;-0.70;95.30;;;;;;4423633;32;20158;-76
2020/12/08 05:13:34;;;;;;;9.90;5.73;;;-0.70;95.30;;;;;;4423648;32;20236;-76
2020/12/08 05:16:06;;;;;;;9.53;5.50;;;-0.60;95.20;;;;;;4420195;32;20167;-76
2020/12/08 05:18:34;;;;;;;10.83;5.60;;;-0.50;95.00;;;;;;4416714;32;20167;-76
2020/12/08 05:21:13;;;;;;;8.80;5.20;;;-0.60;95.10;;;;;;4412777;32;20192;-76
2020/12/08 05:23:41;;;;;;;10.23;5.13;;;-0.60;95.10;;;;;;4412953;32;20218;-76
2020/12/08 05:26:09;;;;;;;8.83;5.40;;;-0.70;95.20;;;;;;4425320;32;20190;-76
2020/12/08 05:28:36;;;;;;;9.60;5.43;;;-0.70;95.20;;;;;;4425318;32;20154;-76
2020/12/08 05:31:04;;;;;;;10.20;5.10;;;-0.70;95.30;;;;;;4425555;32;20157;-76
2020/12/08 05:33:31;;;;;;;9.43;5.80;;;-0.70;95.30;;;;;;4424831;32;20227;-76
2020/12/08 05:36:00;;;;;;;9.80;5.77;;;-0.80;95.20;;;;;;4424711;32;20206;-76
2020/12/08 05:38:37;;;;;;;12.73;5.93;;;-0.70;95.40;;;;;;4424234;32;20143;-76
2020/12/08 05:41:07;;;;;;;10.27;6.10;;;-0.80;95.40;;;;;;4425048;32;20545;-77
2020/12/08 05:43:41;;;;;;;9.53;5.70;;;-0.70;95.60;;;;;;4424873;32;20442;-77
2020/12/08 05:46:09;;;;;;;13.33;6.57;;;-0.60;95.40;;;;;;4423081;32;20142;-76
2020/12/08 05:48:37;;;;;;;12.43;6.13;;;-0.60;95.20;;;;;;4415222;32;20417;-76
2020/12/08 05:51:07;;;;;;;10.33;6.40;;;-0.50;94.90;;;;;;4414332;32;20159;-76
2020/12/08 05:53:34;;;;;;;9.90;5.73;;;-0.60;94.90;;;;;;4409796;32;20169;-76
2020/12/08 05:56:08;;;;;;;10.43;6.17;;;-0.60;94.80;;;;;;4409641;32;20470;-76
2020/12/08 05:58:36;;;;;;;13.63;6.47;;;-0.70;95.00;;;;;;4410206;32;20165;-77
2020/12/08 06:01:08;;;;;;;10.07;6.03;;;-0.70;95.00;;;;;;4409529;32;20147;-76
2020/12/08 06:03:36;;;;;;;10.50;6.30;;;-0.70;95.00;;;;;;4409054;32;20177;-78
2020/12/08 06:06:09;;;;;;;11.63;6.70;;;-0.70;95.40;;;;;;4409071;32;20177;-77
2020/12/08 06:08:46;;;;;;;11.63;6.73;;;-0.70;95.10;;;;;;4409048;32;20461;-77
2020/12/08 06:11:16;;;;;;;10.50;5.70;;;-0.70;95.00;;;;;;4410886;32;20166;-77
2020/12/08 06:13:48;;;;;;;10.93;5.70;;;-0.80;95.30;;;;;;4411149;32;20179;-77
2020/12/08 06:16:22;;;;;;;10.67;5.67;;;-0.80;95.40;;;;;;4409499;32;20143;-77
2020/12/08 06:18:50;;;;;;;9.60;5.80;;;-0.80;95.30;;;;;;4410911;32;20192;-77
2020/12/08 06:21:20;;;;;;;10.87;6.17;;;-0.70;95.20;;;;;;4409648;32;20147;-77
2020/12/08 06:23:49;;;;;;;10.60;5.73;;;-0.80;95.30;;;;;;4410778;32;20155;-77
2020/12/08 06:26:24;;;;;;;10.97;5.60;;;-0.70;95.10;;;;;;4409360;32;20147;-77
2020/12/08 06:28:51;;;;;;;9.17;5.37;;;-0.70;95.20;;;;;;4409195;32;20469;-76
2020/12/08 06:31:18;;;;;;;10.27;5.87;;;-0.60;94.90;;;;;;4409053;32;20199;-75
2020/12/08 06:33:56;;;;;;;12.43;6.23;;;-0.70;95.20;;;;;;4410626;32;20189;-76
2020/12/08 06:36:25;;;;;;;11.47;6.20;;;-0.70;95.20;;;;;;4410897;32;20224;-77
2020/12/08 06:38:56;;;;;;;10.63;6.27;;;-0.60;95.00;;;;;;4410959;32;20166;-77
2020/12/08 06:41:38;;;;;;;10.73;5.73;;;-0.70;95.10;;;;;;4410640;32;20218;-76
2020/12/08 06:44:11;;;;;;;14.03;6.60;;;-0.70;95.00;;;;;;4410955;32;20402;-76
2020/12/08 06:46:37;;;;;;;13.27;6.43;;;-0.70;95.20;;;;;;4409410;32;20424;-76
2020/12/08 06:49:07;;;;;;;14.07;6.80;;;-0.70;95.30;;;;;;4409085;32;20160;-76
2020/12/08 06:51:36;;;;;;;13.20;6.67;;;-0.60;95.40;;;;;;4409067;32;20503;-76
2020/12/08 06:54:15;;;;;;;14.07;6.77;;;-0.70;95.20;;;;;;4408576;32;20396;-76
2020/12/08 06:56:41;;;;;;;11.97;7.03;;;-0.70;95.30;;;;;;4408853;32;20139;-77
2020/12/08 06:59:08;;;;;;;11.80;6.93;;;-0.70;95.40;;;;;;4409285;32;20192;-76
2020/12/08 07:01:37;;;;;;;11.00;6.67;;;-0.60;95.40;;;;;;4408942;32;20143;-77
2020/12/08 07:04:05;;;;;;;12.03;6.93;;;-0.60;95.40;;;;;;4409957;32;20162;-76
2020/12/08 07:06:33;;;;;;;12.10;6.83;;;-0.60;95.20;;;;;;4408985;32;20151;-77
2020/12/08 07:09:00;;;;;;;12.03;7.37;;;-0.60;95.30;;;;;;4410506;32;20152;-77
2020/12/08 07:11:26;;;;;;;12.33;7.07;;;-0.50;95.20;;;;;;4408889;32;20403;-76
2020/12/08 07:13:56;;;;;;;16.63;7.33;;;-0.50;95.20;;;;;;4408768;32;20178;-77
2020/12/08 07:16:25;;;;;;;12.87;6.50;;;-0.50;95.20;;;;;;4409225;32;20442;-77
2020/12/08 07:18:56;;;;;;;11.87;7.10;;;-0.60;95.40;;;;;;4411956;32;20159;-77
2020/12/08 07:21:24;;;;;;;12.40;7.30;;;-0.70;95.40;;;;;;4411906;32;20173;-76
2020/12/08 07:24:08;;;;;;;12.77;7.10;;;-0.60;95.60;;;;;;4413386;32;20145;-77
2020/12/08 07:26:34;;;;;;;12.37;7.57;;;-0.60;95.60;;;;;;4411895;32;20395;-76
2020/12/08 07:29:01;;;;;;;12.60;7.07;;;-0.60;95.80;;;;;;4411885;32;20145;-76
2020/12/08 07:31:30;;;;;;;11.77;6.80;;;-0.60;96.00;;;;;;4411603;32;20184;-76
2020/12/08 07:33:58;;;;;;;12.23;7.23;;;-0.60;95.70;;;;;;4411915;32;20155;-76
2020/12/08 07:36:26;;;;;;;11.80;6.87;;;-0.60;95.90;;;;;;4411680;32;20148;-76
2020/12/08 07:38:54;;;;;;;12.10;6.77;;;-0.60;95.60;;;;;;4411142;32;20143;-76
2020/12/08 07:41:26;;;;;;;12.67;7.33;;;-0.60;95.60;;;;;;4411358;32;20139;-76
2020/12/08 07:43:55;;;;;;;11.10;6.73;;;-0.60;95.40;;;;;;4412994;32;20205;-76
2020/12/08 07:46:30;;;;;;;14.73;6.87;;;-0.60;95.20;;;;;;4411457;32;20435;-76
2020/12/08 07:49:07;;;;;;;13.07;6.50;;;-0.60;95.20;;;;;;4411480;32;20173;-77
2020/12/08 07:51:36;;;;;;;11.53;6.73;;;-0.60;95.00;;;;;;4412947;32;20473;-75
2020/12/08 07:54:05;;;;;;;11.93;6.50;;;-0.60;95.60;;;;;;4411336;32;20147;-76
2020/12/08 07:56:33;;;;;;;12.63;6.70;;;-0.50;95.10;;;;;;4412774;32;20145;-76
2020/12/08 07:59:00;;;;;;;15.50;6.80;;;-0.50;94.90;;;;;;4411248;32;20203;-76
2020/12/08 08:01:27;;;;;;;13.80;6.33;;;-0.50;95.00;;;;;;4411216;32;20167;-76
2020/12/08 08:04:14;;;;;;;10.43;5.87;;;-0.50;94.80;;;;;;4411050;32;20174;-76
2020/12/08 08:06:44;;;;;;;12.43;5.80;;;-0.40;94.60;;;;;;4411166;32;20167;-76
2020/12/08 08:09:10;;;;;;;10.07;5.37;;;-0.40;94.60;;;;;;4411196;32;20504;-76
2020/12/08 08:11:37;;;;;;;9.20;5.27;;;-0.50;94.50;;;;;;4412091;32;20200;-76
2020/12/08 08:14:04;;;;;;;11.40;5.67;;;-0.50;94.70;;;;;;4412553;32;20159;-77
2020/12/08 08:16:31;;;;;;;10.83;5.40;;;-0.50;94.50;;;;;;4416633;32;20233;-77
2020/12/08 08:18:58;;;;;;;10.13;5.63;;;-0.50;94.60;;;;;;4417906;32;20426;-77
2020/12/08 08:21:24;;;;;;;9.83;5.33;;;-0.60;94.80;;;;;;4421086;32;20245;-77
2020/12/08 08:23:51;;;;;;;11.07;5.60;;;-0.50;94.50;;;;;;4425258;32;20181;-77
2020/12/08 08:26:18;;;;;;;11.30;5.50;;;-0.50;94.60;;;;;;4415193;32;20204;-76
2020/12/08 08:28:45;;;;;;;9.67;5.60;;;-0.50;94.40;;;;;;4419556;32;20151;-77
2020/12/08 08:31:11;;;;;;;10.53;5.83;;;-0.50;94.30;;;;;;4420669;32;20158;-77
2020/12/08 08:33:38;;;;;;;12.23;5.73;;;-0.50;94.40;;;;;;4414087;32;20206;-78
2020/12/08 08:36:05;;;;;;;11.77;5.70;;;-0.50;94.60;;;;;;4424436;32;20213;-75
2020/12/08 08:38:32;;;;;;;12.27;5.87;;;-0.50;94.40;;;;;;4415187;32;20486;-75
2020/12/08 08:40:59;;;;;;;11.43;6.13;;;-0.40;94.40;;;;;;4418063;32;20224;-75
2020/12/08 08:43:26;;;;;;;10.73;5.70;;;-0.40;94.30;;;;;;4410371;32;20167;-74
2020/12/08 08:45:54;;;;;;;12.50;6.33;;;-0.40;94.40;;;;;;4410318;32;20337;-74
2020/12/08 08:48:22;;;;;;;11.63;6.47;;;-0.40;94.50;;;;;;4410132;32;20143;-74
2020/12/08 08:50:48;;;;;;;12.20;6.07;;;-0.30;94.50;;;;;;4411552;32;20488;-74
2020/12/08 08:53:15;;;;;;;11.67;6.07;;;-0.30;94.30;;;;;;4410323;32;20143;-73
2020/12/08 08:55:42;;;;;;;12.27;6.43;;;-0.30;94.20;;;;;;4411776;32;20196;-74
2020/12/08 08:58:15;;;;;;;11.00;6.20;;;-0.30;94.30;;;;;;4410234;32;20234;-74
2020/12/08 09:00:42;;;;;;;12.80;6.33;;;-0.30;94.30;;;;;;4411616;32;20229;-73
2020/12/08 09:03:09;;;;;;;10.27;6.27;;;-0.30;94.30;;;;;;4409703;32;20460;-73
2020/12/08 09:05:37;;;;;;;12.47;6.83;;;-0.30;94.60;;;;;;4410104;32;20267;-74
2020/12/08 09:08:04;;;;;;;14.27;6.50;;;-0.30;94.40;;;;;;4410352;32;20175;-73
2020/12/08 09:10:31;;;;;;;11.60;5.97;;;-0.20;94.40;;;;;;4409958;32;20193;-74
2020/12/08 09:12:58;;;;;;;14.40;6.53;;;-0.20;94.50;;;;;;4411738;32;20140;-74
2020/12/08 09:15:25;;;;;;;12.77;6.53;;;-0.10;94.50;;;;;;4411713;32;20405;-73
2020/12/08 09:17:51;;;;;;;13.10;6.83;;;-0.10;94.40;;;;;;4411637;32;20184;-74
2020/12/08 09:20:18;;;;;;;12.87;6.87;;;-0.10;94.20;;;;;;4412546;32;20139;-74
2020/12/08 09:22:45;;;;;;;14.37;6.83;;;0.00;94.40;;;;;;4425187;32;20151;-76
2020/12/08 09:25:13;;;;;;;12.73;6.70;;;-0.10;94.40;;;;;;4425139;32;20202;-72
2020/12/08 09:27:39;;;;;;;12.47;6.60;;;-0.10;94.50;;;;;;4426607;32;20194;-74
2020/12/08 09:30:06;;;;;;;13.60;6.60;;;-0.10;94.30;;;;;;4424871;32;20195;-74
2020/12/08 09:32:32;;;;;;;11.77;6.67;;;0.00;94.40;;;;;;4424960;32;20205;-74
2020/12/08 09:34:59;;;;;;;16.03;7.20;;;0.00;94.40;;;;;;4425106;32;20191;-74
2020/12/08 09:37:26;;;;;;;15.10;6.97;;;-0.10;94.50;;;;;;4426551;32;20469;-74
2020/12/08 09:39:53;;;;;;;12.57;7.47;;;-0.10;94.50;;;;;;4425026;32;20533;-74
2020/12/08 09:42:21;;;;;;;14.30;6.87;;;-0.10;94.60;;;;;;4424261;32;20181;-75
2020/12/08 09:44:48;;;;;;;14.43;7.37;;;0.00;94.70;;;;;;4424999;32;20158;-75
2020/12/08 09:47:16;;;;;;;17.73;7.77;;;0.00;94.70;;;;;;4424966;32;20158;-75
2020/12/08 09:49:44;;;;;;;16.90;7.70;;;0.00;94.50;;;;;;4424843;32;20192;-75
2020/12/08 09:52:11;;;;;;;17.17;8.00;;;0.00;94.60;;;;;;4424868;32;20411;-75
2020/12/08 09:54:38;;;;;;;13.73;7.67;;;0.10;94.80;;;;;;4424326;32;20199;-76
2020/12/08 09:57:05;;;;;;;17.37;7.93;;;0.00;94.80;;;;;;4425053;32;20162;-75
2020/12/08 09:59:32;;;;;;;14.53;7.80;;;0.10;94.80;;;;;;4425866;32;20151;-76
2020/12/08 10:02:02;;;;;;;15.10;8.03;;;0.00;94.80;;;;;;4424108;32;20230;-75
2020/12/08 10:04:30;;;;;;;15.10;8.30;;;0.10;94.80;;;;;;4424923;32;20170;-75
2020/12/08 10:06:57;;;;;;;15.00;7.67;;;0.10;94.90;;;;;;4424715;32;20142;-76
2020/12/08 10:09:23;;;;;;;19.70;8.50;;;0.10;94.90;;;;;;4424735;32;20192;-76
2020/12/08 10:11:50;;;;;;;16.70;8.20;;;0.10;95.00;;;;;;4424616;32;20152;-76
2020/12/08 10:14:17;;;;;;;19.47;8.00;;;0.10;95.00;;;;;;4424548;32;20185;-74
2020/12/08 10:16:44;;;;;;;17.37;8.50;;;0.20;95.00;;;;;;4424064;32;20170;-75
2020/12/08 10:19:10;;;;;;;18.80;8.33;;;0.20;95.10;;;;;;4424678;32;20169;-75
2020/12/08 10:21:39;;;;;;;17.77;8.47;;;0.20;94.90;;;;;;4424544;32;20231;-75
2020/12/08 10:24:06;;;;;;;19.40;8.83;;;0.20;95.00;;;;;;4422602;32;20461;-75
2020/12/08 10:26:32;;;;;;;17.47;8.57;;;0.30;95.20;;;;;;4423515;32;20215;-75
2020/12/08 10:28:59;;;;;;;17.37;8.83;;;0.30;95.10;;;;;;4416883;32;20147;-73
2020/12/08 10:31:26;;;;;;;20.73;8.93;;;0.20;95.00;;;;;;4418815;32;20442;-73
2020/12/08 10:33:53;;;;;;;17.83;8.40;;;0.30;95.20;;;;;;4411418;32;20182;-76
2020/12/08 10:36:20;;;;;;;17.13;8.13;;;0.20;95.10;;;;;;4421478;32;20207;-73
2020/12/08 10:38:47;;;;;;;16.40;8.80;;;0.20;95.10;;;;;;4415424;32;20215;-75
2020/12/08 10:41:14;;;;;;;19.17;8.50;;;0.20;95.30;;;;;;4416539;32;20187;-74
2020/12/08 10:43:40;;;;;;;16.40;8.50;;;0.10;95.50;;;;;;4421794;32;20432;-75
2020/12/08 10:46:07;;;;;;;19.10;9.03;;;0.10;95.60;;;;;;4411728;32;20216;-74
2020/12/08 10:48:34;;;;;;;18.03;8.47;;;0.10;95.60;;;;;;4419543;32;20197;-74
2020/12/08 10:51:01;;;;;;;15.83;7.93;;;0.10;95.60;;;;;;4416079;32;20474;-76
2020/12/08 10:53:27;;;;;;;17.33;8.90;;;0.10;95.60;;;;;;4415681;32;20424;-75
2020/12/08 10:55:54;;;;;;;21.77;9.37;;;0.10;95.80;;;;;;4424301;32;20555;-76
2020/12/08 10:58:21;;;;;;;18.67;9.07;;;0.20;96.00;;;;;;4415088;32;20162;-76
2020/12/08 11:00:47;;;;;;;18.53;9.53;;;0.20;95.80;;;;;;4421897;32;20149;-75
2020/12/08 11:03:14;;;;;;;17.67;8.77;;;0.30;95.80;;;;;;4417373;32;20228;-74
2020/12/08 11:05:41;;;;;;;19.17;9.80;;;0.30;95.70;;;;;;4423439;32;20214;-72
2020/12/08 11:08:08;;;;;;;20.40;9.20;;;0.30;95.60;;;;;;4425238;32;20582;-73
2020/12/08 11:10:35;;;;;;;20.30;9.97;;;0.20;95.70;;;;;;4417950;32;20163;-75
2020/12/08 11:13:02;;;;;;;18.50;9.60;;;0.20;95.90;;;;;;4420282;32;20422;-74
2020/12/08 11:15:29;;;;;;;17.07;8.93;;;0.20;96.00;;;;;;4422050;32;20177;-74
2020/12/08 11:17:56;;;;;;;17.70;9.23;;;0.30;95.70;;;;;;4413604;32;20155;-74
2020/12/08 11:20:22;;;;;;;17.57;9.00;;;0.30;95.60;;;;;;4424990;32;20204;-74
2020/12/08 11:22:49;;;;;;;21.07;8.90;;;0.20;95.70;;;;;;4417745;32;20219;-74
2020/12/08 11:25:15;;;;;;;20.90;9.23;;;0.30;95.70;;;;;;4418100;32;20154;-74
2020/12/08 11:27:42;;;;;;;19.83;8.83;;;0.40;95.70;;;;;;4423226;32;20177;-76
2020/12/08 11:30:09;;;;;;;17.73;8.50;;;0.40;95.70;;;;;;4415461;32;20182;-75
2020/12/08 11:32:35;;;;;;;20.10;9.33;;;0.30;95.60;;;;;;4421519;32;20250;-74
2020/12/08 11:35:02;;;;;;;20.17;9.20;;;0.30;95.70;;;;;;4418249;32;20205;-74
2020/12/08 11:37:29;;;;;;;16.73;8.83;;;0.20;95.70;;;;;;4416327;32;20151;-74
2020/12/08 11:40:13;;;;;;;19.73;9.27;;;0.20;95.80;;;;;;4423794;32;20166;-73
2020/12/08 11:42:39;;;;;;;16.87;8.90;;;0.30;95.90;;;;;;4417814;32;20162;-74
2020/12/08 11:45:06;;;;;;;19.90;9.13;;;0.30;96.00;;;;;;4418597;32;20349;-73
2020/12/08 11:47:32;;;;;;;19.87;9.17;;;0.20;96.20;;;;;;4421806;32;20153;-75
2020/12/08 11:49:59;;;;;;;20.30;9.20;;;0.20;96.30;;;;;;4415162;32;20152;-75
2020/12/08 11:52:26;;;;;;;19.27;8.97;;;0.10;96.70;;;;;;4424051;32;20578;-76
2020/12/08 11:54:53;;;;;;;19.83;9.30;;;0.10;96.90;;;;;;4417775;32;20270;-74
2020/12/08 11:57:19;;;;;;;26.30;9.70;;;0.10;97.20;;;;;;4417940;32;20145;-73
2020/12/08 11:59:46;;;;;;;19.83;8.57;;;0.00;97.80;;;;;;4423112;32;20223;-74
2020/12/08 12:02:13;;;;;;;19.67;9.47;;;0.00;98.50;;;;;;4414057;32;20178;-75
2020/12/08 12:04:44;;;;;;;20.47;9.90;;;0.00;99.20;;;;;;4419861;32;20512;-74
2020/12/08 12:07:11;;;;;;;19.17;9.57;;;0.00;99.60;;;;;;4419634;32;20219;-74
2020/12/08 12:09:38;;;;;;;20.33;10.00;;;0.00;99.90;;;;;;4416085;32;20164;-73
2020/12/08 12:12:05;;;;;;;22.47;9.43;;;0.10;99.90;;;;;;4423270;32;20262;-73
2020/12/08 12:14:31;;;;;;;20.33;9.83;;;0.00;99.90;;;;;;4416550;32;20451;-75
2020/12/08 12:16:58;;;;;;;22.70;10.50;;;0.00;99.90;;;;;;4419396;32;20188;-74
2020/12/08 12:19:25;;;;;;;19.60;9.87;;;0.00;99.90;;;;;;4420707;32;20163;-74
2020/12/08 12:21:52;;;;;;;21.57;10.40;;;0.00;99.90;;;;;;4413153;32;20183;-73
2020/12/08 12:24:19;;;;;;;21.87;10.40;;;0.00;99.90;;;;;;4422398;32;20180;-73
2020/12/08 12:26:47;;;;;;;23.23;10.30;;;0.00;99.90;;;;;;4417629;32;20563;-71
2020/12/08 12:29:13;;;;;;;24.97;11.00;;;-0.10;99.90;;;;;;4418512;32;20167;-73
2020/12/08 12:31:44;;;;;;;22.83;11.00;;;0.00;99.90;;;;;;4421826;32;20218;-73
2020/12/08 12:34:11;;;;;;;21.37;10.70;;;0.10;99.90;;;;;;4414565;32;20488;-74
2020/12/08 12:36:38;;;;;;;25.40;10.33;;;0.10;99.90;;;;;;4420701;32;20485;-74
2020/12/08 12:39:05;;;;;;;23.53;11.43;;;0.00;99.90;;;;;;4418299;32;20225;-72
2020/12/08 12:41:32;;;;;;;23.57;11.17;;;0.00;99.90;;;;;;4416002;32;20553;-72
2020/12/08 12:43:59;;;;;;;21.83;11.17;;;-0.10;99.90;;;;;;4423229;32;20481;-73